This is the latest recevied weather packets stored in our database for station/object IN3XSV-13. If no packets are shown the sender has not sent any weather packets the latest 10 day(s).
| Time | Temp. | Humidity | Pressure | Rain* | Wind** | Luminosity | Snow |
|---|---|---|---|---|---|---|---|
| 1787938063 | 28.89° C | 44% | 1008.6 hPa | 0 mm | - | - | - |
| 1787937763 | 28.89° C | 44% | 1008.9 hPa | 0 mm | - | - | - |
| 1787937463 | 28.89° C | 45% | 1008.7 hPa | 0 mm | - | - | - |
| 1787937163 | 29.44° C | 43% | 1008.8 hPa | 0 mm | - | - | - |
| 1787936863 | 29.44° C | 43% | 1008.4 hPa | 0 mm | - | - | - |
| 1787936563 | 29.44° C | 45% | 1008.2 hPa | 0 mm | - | - | - |
| 1787936263 | 29.44° C | 44% | 1008.2 hPa | 0 mm | - | - | - |
| 1787935963 | 29.44° C | 44% | 1007.7 hPa | 0 mm | - | - | - |
| 1787935663 | 28.89° C | 47% | 1007.8 hPa | 0 mm | - | - | - |
| 1787935363 | 28.89° C | 48% | 1007.6 hPa | 0 mm | - | - | - |
| 1787935063 | 29.44° C | 44% | 1008.1 hPa | 0 mm | - | - | - |
| 1787934763 | 30° C | 42% | 1008.6 hPa | 0 mm | - | - | - |
| 1787934463 | 29.44° C | 43% | 1008.6 hPa | 0 mm | - | - | - |
| 1787934163 | 30° C | 44% | 1008.6 hPa | 0 mm | - | - | - |
| 1787933863 | 30° C | 43% | 1008.4 hPa | 0 mm | - | - | - |
| 1787933563 | 30° C | 43% | 1008.1 hPa | 0 mm | - | - | - |
| 1787933263 | 30° C | 43% | 1008.3 hPa | 0 mm | - | - | - |
| 1787932963 | 30° C | 43% | 1008.1 hPa | 0 mm | - | - | - |
| 1787932663 | 30° C | 43% | 1008 hPa | 0 mm | - | - | - |
| 1787932363 | 30° C | 43% | 1008.1 hPa | 0 mm | - | - | - |
| 1787932063 | 29.44° C | 45% | 1007.9 hPa | 0 mm | - | - | - |
| 1787931764 | 29.44° C | 45% | 1007.8 hPa | 0 mm | - | - | - |
| 1787931463 | 30.56° C | 42% | 1008.1 hPa | 0 mm | - | - | - |
| 1787931164 | 31.11° C | 38% | 1008.3 hPa | 0 mm | - | - | - |
| 1787930863 | 31.11° C | 38% | 1008.4 hPa | 0 mm | - | - | - |
* Rain latest hour (hover to see other rain measurements)
** Current wind speed in m/s (hover to see current wind gust speed)